sim
Sign-in with your pilot id or email,
or register
Callsign
Passwort

Schedule Details

Flight Number: EWG652 (2)
Departure: Cologne Bonn Airport (EDDK) at 05:35
Arrival: Thessaloniki International Airport (LGTS) at 08:10
Route: Eurowings Passenger Schedule. Enter filed route here before submitting Pirep.

Weather Information
Getting current METAR information for EDDK 252220Z 21007KT CAVOK 13/06 Q1010 NOSIG
Getting current METAR information for LGTS 252220Z VRB02KT CAVOK 15/12 Q1020 NOSIG

Schedule Frequency

Route Map